createdAt,value
2018-05-25T00:00:18.422Z,0.00
2018-05-25T00:01:18.415Z,0.00
2018-05-25T00:02:18.414Z,0.00
2018-05-25T00:03:18.419Z,0.00
2018-05-25T00:04:18.414Z,0.00
2018-05-25T00:05:18.413Z,0.00
2018-05-25T00:06:18.412Z,0.00
2018-05-25T00:07:18.404Z,0.00
2018-05-25T00:08:18.403Z,0.00
2018-05-25T00:09:18.401Z,0.00
2018-05-25T00:10:18.400Z,0.00
2018-05-25T00:11:18.403Z,0.00
2018-05-25T00:12:18.401Z,0.00
2018-05-25T00:13:18.398Z,0.00
2018-05-25T00:14:18.398Z,0.00
2018-05-25T00:15:18.390Z,0.00
2018-05-25T00:16:18.388Z,0.00
2018-05-25T00:17:18.391Z,0.00
2018-05-25T00:18:18.389Z,0.00
2018-05-25T00:19:18.382Z,0.00
2018-05-25T00:20:18.381Z,0.00
2018-05-25T00:21:18.379Z,0.00
2018-05-25T00:22:18.378Z,0.00
2018-05-25T00:23:18.380Z,0.00
2018-05-25T00:24:18.381Z,0.00
2018-05-25T00:25:18.376Z,0.00
2018-05-25T00:26:18.375Z,0.00
2018-05-25T00:27:18.367Z,0.00
2018-05-25T00:28:18.365Z,0.00
2018-05-25T00:29:18.364Z,0.00
2018-05-25T00:30:18.363Z,0.00
2018-05-25T00:31:18.363Z,0.00
2018-05-25T00:32:18.361Z,0.00
2018-05-25T00:33:18.357Z,0.00
2018-05-25T00:34:18.354Z,0.00
2018-05-25T00:35:18.356Z,0.00
2018-05-25T00:36:18.354Z,0.00
2018-05-25T00:37:18.353Z,0.00
2018-05-25T00:38:18.352Z,0.00
2018-05-25T00:39:18.345Z,0.00
2018-05-25T00:40:18.342Z,0.00
2018-05-25T00:41:18.341Z,0.00
2018-05-25T00:42:18.345Z,0.00
2018-05-25T00:43:18.341Z,0.00
2018-05-25T00:44:18.341Z,0.00
2018-05-25T00:45:18.337Z,0.00
2018-05-25T00:46:18.335Z,0.00
2018-05-25T00:47:18.329Z,0.00
2018-05-25T00:48:18.332Z,0.00
2018-05-25T00:49:18.331Z,0.00
2018-05-25T00:50:18.368Z,0.00
2018-05-25T00:51:18.321Z,0.00
2018-05-25T00:52:18.320Z,0.00
2018-05-25T00:53:18.319Z,0.00
2018-05-25T00:54:18.316Z,0.00
2018-05-25T00:55:18.319Z,0.00
2018-05-25T00:56:18.319Z,0.00
2018-05-25T00:57:18.318Z,0.00
2018-05-25T00:58:18.317Z,0.00
2018-05-25T00:59:18.308Z,0.00
2018-05-25T01:00:18.306Z,0.00
2018-05-25T01:01:18.304Z,0.00
2018-05-25T01:02:18.303Z,0.00
2018-05-25T01:03:18.304Z,0.00
2018-05-25T01:04:18.302Z,0.00
2018-05-25T01:05:18.299Z,0.00
2018-05-25T01:06:18.295Z,0.00
2018-05-25T01:07:18.296Z,0.00
2018-05-25T01:08:18.294Z,0.00
2018-05-25T01:09:18.293Z,0.00
2018-05-25T01:10:18.293Z,0.00
2018-05-25T01:11:18.288Z,0.00
2018-05-25T01:12:18.333Z,0.00
2018-05-25T01:13:18.283Z,0.00
2018-05-25T01:14:18.280Z,0.00
2018-05-25T01:15:18.281Z,0.00
2018-05-25T01:16:18.281Z,0.00
2018-05-25T01:17:18.278Z,0.00
2018-05-25T01:18:18.277Z,0.00
2018-05-25T01:19:18.269Z,0.00
2018-05-25T01:20:18.267Z,0.00
2018-05-25T01:21:18.270Z,0.00
2018-05-25T01:22:18.268Z,0.00
2018-05-25T01:23:18.261Z,0.00
2018-05-25T01:24:18.260Z,0.00
2018-05-25T01:25:18.258Z,0.00
2018-05-25T01:26:18.260Z,0.00
2018-05-25T01:27:18.263Z,0.00
2018-05-25T01:28:18.258Z,0.00
2018-05-25T01:29:18.255Z,0.00
2018-05-25T01:30:18.255Z,0.00
2018-05-25T01:31:18.246Z,0.00
2018-05-25T01:32:18.245Z,0.00
2018-05-25T01:33:18.243Z,0.00
2018-05-25T01:34:18.242Z,0.00
2018-05-25T01:35:18.246Z,0.00
2018-05-25T01:36:18.241Z,0.00
2018-05-25T01:37:18.236Z,0.00
2018-05-25T01:38:18.234Z,0.00
2018-05-25T01:39:18.236Z,0.00
2018-05-25T01:40:18.234Z,0.00
2018-05-25T01:41:18.232Z,0.00
2018-05-25T01:42:18.232Z,0.00
2018-05-25T01:43:18.233Z,0.00
2018-05-25T01:44:18.221Z,0.00
2018-05-25T01:45:18.244Z,0.00
2018-05-25T01:46:18.218Z,0.00
2018-05-25T01:47:18.221Z,0.00
2018-05-25T01:48:18.221Z,0.00
2018-05-25T01:49:18.217Z,0.00
2018-05-25T01:50:18.219Z,0.00
2018-05-25T01:51:18.208Z,0.00
2018-05-25T01:52:18.207Z,0.00
2018-05-25T01:53:18.210Z,0.00
2018-05-25T01:54:18.209Z,0.00
2018-05-25T01:55:18.202Z,0.00
2018-05-25T01:56:18.199Z,0.00
2018-05-25T01:57:18.197Z,0.00
2018-05-25T01:58:18.197Z,0.00
2018-05-25T01:59:18.200Z,0.00
2018-05-25T02:00:18.197Z,0.00
2018-05-25T02:01:18.194Z,0.00
2018-05-25T02:02:18.193Z,0.00
2018-05-25T02:03:18.186Z,0.00
2018-05-25T02:04:18.183Z,0.00
2018-05-25T02:05:18.183Z,0.00
2018-05-25T02:06:18.180Z,0.00
2018-05-25T02:07:18.183Z,0.00
2018-05-25T02:08:18.182Z,0.00
2018-05-25T02:09:18.174Z,0.00
2018-05-25T02:10:18.173Z,0.00
2018-05-25T02:11:18.178Z,0.00
2018-05-25T02:12:18.179Z,0.00
2018-05-25T02:13:18.172Z,0.00
2018-05-25T02:14:18.170Z,0.00
2018-05-25T02:15:18.164Z,0.00
2018-05-25T02:16:18.164Z,0.00
2018-05-25T02:17:18.159Z,0.00
2018-05-25T02:18:18.159Z,0.00
2018-05-25T02:19:18.159Z,0.00
2018-05-25T02:20:18.161Z,0.00
2018-05-25T02:21:18.157Z,0.00
2018-05-25T02:22:18.155Z,0.00
2018-05-25T02:23:18.149Z,0.00
2018-05-25T02:24:18.147Z,0.00
2018-05-25T02:25:18.151Z,0.00
2018-05-25T02:26:18.149Z,0.00
2018-05-25T02:27:18.142Z,0.00
2018-05-25T02:28:18.139Z,0.00
2018-05-25T02:29:18.138Z,0.00
2018-05-25T02:30:18.139Z,0.00
2018-05-25T02:31:18.138Z,0.00
2018-05-25T02:32:18.136Z,0.00
2018-05-25T02:33:18.135Z,0.00
2018-05-25T02:34:18.132Z,0.00
2018-05-25T02:35:18.125Z,0.00
2018-05-25T02:36:18.124Z,0.00
2018-05-25T02:37:18.123Z,0.00
2018-05-25T02:38:18.121Z,0.00
2018-05-25T02:39:18.126Z,0.00
2018-05-25T02:40:18.123Z,0.00
2018-05-25T02:41:18.121Z,0.00
2018-05-25T02:42:18.116Z,0.00
2018-05-25T02:43:18.118Z,0.00
2018-05-25T02:44:18.115Z,0.00
2018-05-25T02:45:18.114Z,0.00
2018-05-25T02:46:18.111Z,0.00
2018-05-25T02:47:18.105Z,0.00
2018-05-25T02:48:18.107Z,0.00
2018-05-25T02:49:18.101Z,0.00
2018-05-25T02:50:18.100Z,0.00
2018-05-25T02:51:18.101Z,0.00
2018-05-25T02:52:18.100Z,0.00
2018-05-25T02:53:18.098Z,0.00
2018-05-25T02:54:18.098Z,0.00
2018-05-25T02:55:18.090Z,0.00
2018-05-25T02:56:18.088Z,0.00
2018-05-25T02:57:18.158Z,0.00
2018-05-25T02:58:18.090Z,0.00
2018-05-25T02:59:18.082Z,0.00
2018-05-25T03:00:18.080Z,0.00
2018-05-25T03:01:18.079Z,0.00
2018-05-25T03:02:18.077Z,0.00
2018-05-25T03:03:18.079Z,0.00
2018-05-25T03:04:18.078Z,0.00
2018-05-25T03:05:18.077Z,0.00
2018-05-25T03:06:18.075Z,0.00
2018-05-25T03:07:18.067Z,0.00
2018-05-25T03:08:18.066Z,0.00
2018-05-25T03:09:18.066Z,0.00
2018-05-25T03:10:18.062Z,0.00
2018-05-25T03:11:18.064Z,0.00
2018-05-25T03:12:18.062Z,0.00
2018-05-25T03:13:18.056Z,0.00
2018-05-25T03:14:18.054Z,0.00
2018-05-25T03:15:18.056Z,0.00
2018-05-25T03:16:18.054Z,0.00
2018-05-25T03:17:18.053Z,0.00
2018-05-25T03:18:18.051Z,0.00
2018-05-25T03:19:18.043Z,0.00
2018-05-25T03:20:18.042Z,0.00
2018-05-25T03:21:18.039Z,0.00
2018-05-25T03:22:18.038Z,0.00
2018-05-25T03:23:18.040Z,5.63
2018-05-25T03:24:18.039Z,5.63
2018-05-25T03:25:18.036Z,5.63
2018-05-25T03:26:18.034Z,5.63
2018-05-25T03:27:18.027Z,5.63
2018-05-25T03:28:18.025Z,5.63
2018-05-25T03:29:18.028Z,5.63
2018-05-25T03:30:18.031Z,5.63
2018-05-25T03:31:18.021Z,5.63
2018-05-25T03:32:18.016Z,11.25
2018-05-25T03:33:18.015Z,11.25
2018-05-25T03:34:18.014Z,11.25
2018-05-25T03:35:18.016Z,11.25
2018-05-25T03:36:18.014Z,11.25
2018-05-25T03:37:18.011Z,11.25
2018-05-25T03:38:18.010Z,11.25
2018-05-25T03:39:18.001Z,16.88
2018-05-25T03:40:18.000Z,16.88
2018-05-25T03:41:17.997Z,16.88
2018-05-25T03:42:17.995Z,16.88
2018-05-25T03:43:17.997Z,16.88
2018-05-25T03:44:17.995Z,22.50
2018-05-25T03:45:17.992Z,22.50
2018-05-25T03:46:17.987Z,22.50
2018-05-25T03:47:17.988Z,22.50
2018-05-25T03:48:17.988Z,22.50
2018-05-25T03:49:17.985Z,28.13
2018-05-25T03:50:17.984Z,28.13
2018-05-25T03:51:17.975Z,28.13
2018-05-25T03:52:17.973Z,28.13
2018-05-25T03:53:17.973Z,28.13
2018-05-25T03:54:17.969Z,28.13
2018-05-25T03:55:17.972Z,33.75
2018-05-25T03:56:17.971Z,33.75
2018-05-25T03:57:17.967Z,33.75
2018-05-25T03:58:17.966Z,33.75
2018-05-25T03:59:17.957Z,39.38
2018-05-25T04:00:17.955Z,39.38
2018-05-25T04:01:17.958Z,39.38
2018-05-25T04:02:17.956Z,45.00
2018-05-25T04:03:17.948Z,45.00
2018-05-25T04:04:17.946Z,45.00
2018-05-25T04:05:17.945Z,50.63
2018-05-25T04:06:17.943Z,50.63
2018-05-25T04:07:17.944Z,50.63
2018-05-25T04:08:17.943Z,50.63
2018-05-25T04:09:17.940Z,56.25
2018-05-25T04:10:17.938Z,56.25
2018-05-25T04:11:17.930Z,56.25
2018-05-25T04:12:17.928Z,61.88
2018-05-25T04:13:17.932Z,61.88
2018-05-25T04:14:17.979Z,67.50
2018-05-25T04:15:17.927Z,67.50
2018-05-25T04:16:17.924Z,73.13
2018-05-25T04:17:17.917Z,78.75
2018-05-25T04:18:17.915Z,84.38
2018-05-25T04:19:17.921Z,90.00
2018-05-25T04:20:17.917Z,95.63
2018-05-25T04:21:17.912Z,95.63
2018-05-25T04:22:17.910Z,101.25
2018-05-25T04:23:17.904Z,106.88
2018-05-25T04:24:17.901Z,112.50
2018-05-25T04:25:17.899Z,118.13
2018-05-25T04:26:17.898Z,123.75
2018-05-25T04:27:17.897Z,123.75
2018-05-25T04:28:17.902Z,129.38
2018-05-25T04:29:17.894Z,135.00
2018-05-25T04:30:17.893Z,140.63
2018-05-25T04:31:17.884Z,140.63
2018-05-25T04:32:17.883Z,146.25
2018-05-25T04:33:17.886Z,146.25
2018-05-25T04:34:17.883Z,151.88
2018-05-25T04:35:17.875Z,157.50
2018-05-25T04:36:17.874Z,163.13
2018-05-25T04:37:17.874Z,168.75
2018-05-25T04:38:17.872Z,174.38
2018-05-25T04:39:17.871Z,180.00
2018-05-25T04:40:17.875Z,185.63
2018-05-25T04:41:17.871Z,191.25
2018-05-25T04:42:17.866Z,202.50
2018-05-25T04:43:17.930Z,208.13
2018-05-25T04:44:17.857Z,213.75
2018-05-25T04:45:17.856Z,219.38
2018-05-25T04:46:17.853Z,225.00
2018-05-25T04:47:17.857Z,230.63
2018-05-25T04:48:17.855Z,247.50
2018-05-25T04:49:17.848Z,303.75
2018-05-25T04:50:17.852Z,320.63
2018-05-25T04:51:17.849Z,331.88
2018-05-25T04:52:17.848Z,343.13
2018-05-25T04:53:17.845Z,354.38
2018-05-25T04:54:17.846Z,365.63
2018-05-25T04:55:17.837Z,382.50
2018-05-25T04:56:17.835Z,405.00
2018-05-25T04:57:17.836Z,427.50
2018-05-25T04:58:17.834Z,455.63
2018-05-25T04:59:17.836Z,489.38
2018-05-25T05:00:17.836Z,523.13
2018-05-25T05:01:17.835Z,528.75
2018-05-25T05:02:17.836Z,551.25
2018-05-25T05:03:17.829Z,568.13
2018-05-25T05:04:17.830Z,590.63
2018-05-25T05:05:17.836Z,613.13
2018-05-25T05:06:17.835Z,618.75
2018-05-25T05:07:17.830Z,624.38
2018-05-25T05:08:17.830Z,630.00
2018-05-25T05:09:17.832Z,641.25
2018-05-25T05:10:17.833Z,646.88
2018-05-25T05:11:17.836Z,641.25
2018-05-25T05:12:17.842Z,646.88
2018-05-25T05:13:17.839Z,646.88
2018-05-25T05:14:17.846Z,652.50
2018-05-25T05:15:17.837Z,658.13
2018-05-25T05:16:17.839Z,669.38
2018-05-25T05:17:17.842Z,663.75
2018-05-25T05:18:17.848Z,658.13
2018-05-25T05:19:17.848Z,658.13
2018-05-25T05:20:17.851Z,669.38
2018-05-25T05:21:17.850Z,680.63
2018-05-25T05:22:17.852Z,686.25
2018-05-25T05:23:17.858Z,691.88
2018-05-25T05:24:17.861Z,703.13
2018-05-25T05:25:17.864Z,714.38
2018-05-25T05:26:17.868Z,714.38
2018-05-25T05:27:17.866Z,708.75
2018-05-25T05:28:17.869Z,562.50
2018-05-25T05:29:17.872Z,646.88
2018-05-25T05:30:17.876Z,725.63
2018-05-25T05:31:17.884Z,798.75
2018-05-25T05:32:17.887Z,860.63
2018-05-25T05:33:17.890Z,883.13
2018-05-25T05:34:17.894Z,894.38
2018-05-25T05:35:17.893Z,894.38
2018-05-25T05:36:17.898Z,905.63
2018-05-25T05:37:17.905Z,905.63
2018-05-25T05:38:17.909Z,916.88
2018-05-25T05:39:17.908Z,933.75
2018-05-25T05:40:17.913Z,961.88
2018-05-25T05:41:17.922Z,990.00
2018-05-25T05:42:17.922Z,1018.13
2018-05-25T05:43:17.932Z,1051.88
2018-05-25T05:44:17.937Z,1085.63
2018-05-25T05:45:17.941Z,1096.88
2018-05-25T05:46:17.946Z,1113.75
2018-05-25T05:47:17.954Z,1125.00
2018-05-25T05:48:17.951Z,1125.00
2018-05-25T05:49:17.961Z,1147.50
2018-05-25T05:50:17.961Z,1153.13
2018-05-25T05:51:17.971Z,1164.38
2018-05-25T05:52:17.976Z,1186.88
2018-05-25T05:53:17.977Z,1181.25
2018-05-25T05:54:17.983Z,1209.38
2018-05-25T05:55:17.993Z,1192.50
2018-05-25T05:56:18.000Z,1209.38
2018-05-25T05:57:18.008Z,1215.00
2018-05-25T05:58:18.013Z,1226.25
2018-05-25T05:59:18.018Z,1231.88
2018-05-25T06:00:18.021Z,1237.50
2018-05-25T06:01:18.029Z,1231.88
2018-05-25T06:02:18.034Z,1265.63
2018-05-25T06:03:18.044Z,1260.00
2018-05-25T06:04:18.101Z,1288.13
2018-05-25T06:05:18.059Z,1282.50
2018-05-25T06:06:18.067Z,1310.63
2018-05-25T06:07:18.068Z,1321.88
2018-05-25T06:08:18.075Z,1361.25
2018-05-25T06:09:18.087Z,1383.75
2018-05-25T06:10:18.095Z,1395.00
2018-05-25T06:11:18.096Z,1428.75
2018-05-25T06:12:18.106Z,1445.63
2018-05-25T06:13:18.113Z,1451.25
2018-05-25T06:14:18.120Z,1451.25
2018-05-25T06:15:18.131Z,1456.88
2018-05-25T06:16:18.140Z,1462.50
2018-05-25T06:17:18.148Z,1451.25
2018-05-25T06:18:18.156Z,1485.00
2018-05-25T06:19:18.164Z,1479.38
2018-05-25T06:20:18.170Z,1490.63
2018-05-25T06:21:18.174Z,1496.25
2018-05-25T06:22:18.182Z,1518.75
2018-05-25T06:23:18.195Z,1524.38
2018-05-25T06:24:18.203Z,1546.88
2018-05-25T06:25:18.245Z,1546.88
2018-05-25T06:26:18.215Z,1541.25
2018-05-25T06:27:18.229Z,1558.13
2018-05-25T06:28:18.238Z,1552.50
2018-05-25T06:29:18.245Z,1575.00
2018-05-25T06:30:18.254Z,1586.25
2018-05-25T06:31:18.257Z,1591.88
2018-05-25T06:32:18.266Z,1603.13
2018-05-25T06:33:18.275Z,1603.13
2018-05-25T06:34:18.284Z,1586.25
2018-05-25T06:35:18.298Z,1591.88
2018-05-25T06:36:18.306Z,1608.75
2018-05-25T06:37:18.315Z,1631.25
2018-05-25T06:38:18.325Z,1659.38
2018-05-25T06:39:18.329Z,1681.88
2018-05-25T06:40:18.338Z,1704.38
2018-05-25T06:41:18.353Z,1732.50
2018-05-25T06:42:18.363Z,1738.13
2018-05-25T06:43:18.365Z,1726.88
2018-05-25T06:44:18.432Z,1755.00
2018-05-25T06:45:18.384Z,1721.25
2018-05-25T06:46:18.394Z,1721.25
2018-05-25T06:47:18.407Z,1732.50
2018-05-25T06:48:18.421Z,1749.38
2018-05-25T06:49:18.428Z,1760.63
2018-05-25T06:50:18.437Z,1766.25
2018-05-25T06:51:18.441Z,1794.38
2018-05-25T06:52:18.451Z,1822.50
2018-05-25T06:53:18.462Z,1822.50
2018-05-25T06:54:18.472Z,1828.13
2018-05-25T06:55:18.485Z,1822.50
2018-05-25T06:56:18.495Z,1833.75
2018-05-25T06:57:18.501Z,1822.50
2018-05-25T06:58:18.512Z,1856.25
2018-05-25T06:59:18.525Z,1878.75
2018-05-25T07:00:18.538Z,1890.00
2018-05-25T07:01:18.546Z,1929.38
2018-05-25T07:02:18.557Z,1912.50
2018-05-25T07:03:18.562Z,1918.13
2018-05-25T07:04:18.573Z,1946.25
2018-05-25T07:05:18.586Z,1951.88
2018-05-25T07:06:18.595Z,1946.25
2018-05-25T07:07:18.610Z,1980.00
2018-05-25T07:08:18.621Z,1968.75
2018-05-25T07:09:18.635Z,1980.00
2018-05-25T07:10:18.645Z,1996.88
2018-05-25T07:11:18.655Z,2025.00
2018-05-25T07:12:18.663Z,2013.75
2018-05-25T07:13:18.680Z,2053.13
2018-05-25T07:14:18.691Z,2081.25
2018-05-25T07:15:18.698Z,2109.38
2018-05-25T07:16:18.711Z,2154.38
2018-05-25T07:17:18.721Z,2182.50
2018-05-25T07:18:18.738Z,2233.13
2018-05-25T07:19:18.763Z,2250.00
2018-05-25T07:20:18.763Z,2300.63
2018-05-25T07:21:18.776Z,2362.50
2018-05-25T07:22:18.788Z,2418.75
2018-05-25T07:23:18.794Z,2441.25
2018-05-25T07:24:18.808Z,2576.25
2018-05-25T07:25:18.820Z,2773.13
2018-05-25T07:26:18.832Z,2964.38
2018-05-25T07:27:18.850Z,3116.25
2018-05-25T07:28:18.862Z,3448.13
2018-05-25T07:29:18.871Z,3577.50
2018-05-25T07:30:18.884Z,3448.13
2018-05-25T07:31:18.901Z,3453.75
2018-05-25T07:32:18.914Z,3335.63
2018-05-25T07:33:18.930Z,3465.00
2018-05-25T07:34:18.941Z,3504.38
2018-05-25T07:35:18.976Z,3498.75
2018-05-25T07:36:18.964Z,3453.75
2018-05-25T07:37:18.980Z,3600.00
2018-05-25T07:38:18.989Z,3560.63
2018-05-25T07:39:19.052Z,3706.88
2018-05-25T07:40:19.021Z,3667.50
2018-05-25T07:41:19.033Z,3971.25
2018-05-25T07:42:19.048Z,3993.75
2018-05-25T07:43:19.057Z,3937.50
2018-05-25T07:44:19.070Z,3825.00
2018-05-25T07:45:19.089Z,4016.25
2018-05-25T07:46:19.102Z,3903.75
2018-05-25T07:47:19.113Z,4027.50
2018-05-25T07:48:19.126Z,3751.88
2018-05-25T07:49:19.140Z,3976.88
2018-05-25T07:50:19.160Z,3391.88
2018-05-25T07:51:19.173Z,4021.88
2018-05-25T07:52:19.187Z,3847.50
2018-05-25T07:53:19.200Z,3982.50
2018-05-25T07:54:19.242Z,4365.00
2018-05-25T07:55:19.223Z,4410.00
2018-05-25T07:56:19.238Z,4708.13
2018-05-25T07:57:19.261Z,4618.13
2018-05-25T07:58:19.266Z,4044.38
2018-05-25T07:59:19.285Z,4100.63
2018-05-25T08:00:19.312Z,3324.38
2018-05-25T08:01:19.310Z,3594.38
2018-05-25T08:02:19.324Z,3808.13
2018-05-25T08:03:19.342Z,4269.38
2018-05-25T08:04:19.356Z,3037.50
2018-05-25T08:05:19.374Z,3346.88
2018-05-25T08:06:19.405Z,2902.50
2018-05-25T08:07:19.399Z,2722.50
2018-05-25T08:08:19.411Z,1940.63
2018-05-25T08:09:19.425Z,2362.50
2018-05-25T08:10:19.440Z,3256.88
2018-05-25T08:11:19.460Z,3571.88
2018-05-25T08:12:19.474Z,4016.25
2018-05-25T08:13:19.487Z,3718.13
2018-05-25T08:14:19.501Z,3465.00
2018-05-25T08:15:19.510Z,4348.13
2018-05-25T08:16:19.525Z,3926.25
2018-05-25T08:17:19.542Z,3746.25
2018-05-25T08:18:19.557Z,3774.38
2018-05-25T08:19:19.566Z,2998.13
2018-05-25T08:20:19.580Z,4365.00
2018-05-25T08:21:19.595Z,3830.63
2018-05-25T08:22:19.609Z,3718.13
2018-05-25T08:23:19.627Z,4500.00
2018-05-25T08:24:19.643Z,3588.75
2018-05-25T08:25:19.656Z,4421.25
2018-05-25T08:26:19.671Z,3200.63
2018-05-25T08:27:19.680Z,3937.50
2018-05-25T08:28:19.695Z,3588.75
2018-05-25T08:29:19.711Z,2160.00
2018-05-25T08:30:19.776Z,2092.50
2018-05-25T08:31:19.745Z,2025.00
2018-05-25T08:32:19.761Z,1822.50
2018-05-25T08:33:19.771Z,1811.25
2018-05-25T08:34:19.785Z,1918.13
2018-05-25T08:35:19.806Z,1822.50
2018-05-25T08:36:19.819Z,1929.38
2018-05-25T08:37:19.832Z,1783.13
2018-05-25T08:38:19.846Z,1670.63
2018-05-25T08:39:19.855Z,1608.75
2018-05-25T08:40:19.868Z,1681.88
2018-05-25T08:41:19.881Z,1676.25
2018-05-25T08:42:19.895Z,1631.25
2018-05-25T08:43:19.914Z,1631.25
2018-05-25T08:44:19.924Z,1715.63
2018-05-25T08:45:19.937Z,1822.50
2018-05-25T08:46:19.968Z,1805.63
2018-05-25T08:47:19.963Z,1856.25
2018-05-25T08:48:19.970Z,1963.13
2018-05-25T08:49:19.987Z,2295.00
2018-05-25T08:50:19.997Z,2047.50
2018-05-25T08:51:20.003Z,2773.13
2018-05-25T08:52:20.014Z,2137.50
2018-05-25T08:53:20.027Z,2126.25
2018-05-25T08:54:20.037Z,2238.75
2018-05-25T08:55:20.051Z,2885.63
2018-05-25T08:56:20.063Z,4387.50
2018-05-25T08:57:20.074Z,4516.88
2018-05-25T08:58:20.085Z,3324.38
2018-05-25T08:59:20.092Z,4815.00
2018-05-25T09:00:20.103Z,4618.13
2018-05-25T09:01:20.173Z,4848.75
2018-05-25T09:02:20.128Z,4426.88
2018-05-25T09:03:20.147Z,4353.75
2018-05-25T09:04:20.157Z,4185.00
2018-05-25T09:05:20.165Z,4061.25
2018-05-25T09:06:20.179Z,3971.25
2018-05-25T09:07:20.197Z,3909.38
2018-05-25T09:08:20.211Z,3639.38
2018-05-25T09:09:20.225Z,3785.63
2018-05-25T09:10:20.241Z,3875.63
2018-05-25T09:11:20.251Z,3971.25
2018-05-25T09:12:20.308Z,4089.38
2018-05-25T09:13:20.282Z,4117.50
2018-05-25T09:14:20.299Z,3211.88
2018-05-25T09:15:20.318Z,3971.25
2018-05-25T09:16:20.334Z,4258.13
2018-05-25T09:17:20.351Z,4516.88
2018-05-25T09:18:20.376Z,4415.63
2018-05-25T09:19:20.380Z,4263.75
2018-05-25T09:20:20.395Z,3746.25
2018-05-25T09:21:20.419Z,4291.88
2018-05-25T09:22:20.440Z,4545.00
2018-05-25T09:23:20.448Z,4500.00
2018-05-25T09:24:20.468Z,4471.88
2018-05-25T09:25:20.484Z,4421.25
2018-05-25T09:26:20.503Z,4545.00
2018-05-25T09:27:20.523Z,4663.13
2018-05-25T09:28:20.542Z,4764.38
2018-05-25T09:29:20.560Z,4854.38
2018-05-25T09:30:20.578Z,4910.63
2018-05-25T09:31:20.591Z,5017.50
2018-05-25T09:32:20.610Z,4803.75
2018-05-25T09:33:20.628Z,4128.75
2018-05-25T09:34:20.647Z,3532.50
2018-05-25T09:35:20.670Z,4055.63
2018-05-25T09:36:20.746Z,3673.13
2018-05-25T09:37:20.709Z,4747.50
2018-05-25T09:38:20.722Z,4286.25
2018-05-25T09:39:20.745Z,3560.63
2018-05-25T09:40:20.763Z,2784.38
2018-05-25T09:41:20.832Z,2615.63
2018-05-25T09:42:20.799Z,2469.38
2018-05-25T09:43:20.845Z,3313.13
2018-05-25T09:44:20.828Z,3611.25
2018-05-25T09:45:20.846Z,3718.13
2018-05-25T09:46:20.864Z,3211.88
2018-05-25T09:47:20.885Z,2986.88
2018-05-25T09:48:20.903Z,3616.88
2018-05-25T09:49:20.922Z,3870.00
2018-05-25T09:50:20.948Z,3678.75
2018-05-25T09:51:20.953Z,3588.75
2018-05-25T09:52:20.968Z,2981.25
2018-05-25T09:53:20.991Z,2683.13
2018-05-25T09:54:21.008Z,2334.38
2018-05-25T09:55:21.022Z,2266.88
2018-05-25T09:56:21.039Z,2295.00
2018-05-25T09:57:21.056Z,2317.50
2018-05-25T09:58:21.076Z,2193.75
2018-05-25T09:59:21.097Z,2340.00
2018-05-25T10:00:21.113Z,2913.75
2018-05-25T10:01:21.130Z,3341.25
2018-05-25T10:02:21.147Z,1091.25
2018-05-25T10:03:21.160Z,1001.25
2018-05-25T10:04:21.177Z,1130.63
2018-05-25T10:05:21.192Z,1198.13
2018-05-25T10:06:21.216Z,1215.00
2018-05-25T10:07:21.231Z,2722.50
2018-05-25T10:08:21.246Z,2953.13
2018-05-25T10:09:21.256Z,3116.25
2018-05-25T10:10:21.273Z,1395.00
2018-05-25T10:11:21.291Z,1231.88
2018-05-25T10:12:21.308Z,1299.38
2018-05-25T10:13:21.322Z,3026.25
2018-05-25T10:14:21.338Z,3223.13
2018-05-25T10:15:21.350Z,2373.75
2018-05-25T10:16:21.362Z,3245.63
2018-05-25T10:17:21.377Z,4966.88
2018-05-25T10:18:21.392Z,5281.88
2018-05-25T10:19:21.416Z,5208.75
2018-05-25T10:20:21.477Z,4893.75
2018-05-25T10:21:21.443Z,1530.00
2018-05-25T10:22:21.459Z,4005.00
2018-05-25T10:23:21.469Z,5169.38
2018-05-25T10:24:21.484Z,4545.00
2018-05-25T10:25:21.507Z,2306.25
2018-05-25T10:26:21.521Z,2846.25
2018-05-25T10:27:21.532Z,3526.88
2018-05-25T10:28:21.549Z,5090.63
2018-05-25T10:29:21.565Z,4123.13
2018-05-25T10:30:21.581Z,4764.38
2018-05-25T10:31:21.601Z,4848.75
2018-05-25T10:32:21.618Z,4921.88
2018-05-25T10:33:21.635Z,5073.75
2018-05-25T10:34:21.651Z,5051.25
2018-05-25T10:35:21.663Z,5265.00
2018-05-25T10:36:21.679Z,5428.13
2018-05-25T10:37:21.699Z,5315.63
2018-05-25T10:38:21.712Z,5169.38
2018-05-25T10:39:21.733Z,5203.13
2018-05-25T10:40:21.749Z,714.38
2018-05-25T10:41:21.764Z,708.75
2018-05-25T10:42:21.779Z,945.00
2018-05-25T10:43:21.800Z,1451.25
2018-05-25T10:44:21.817Z,883.13
2018-05-25T10:45:21.837Z,770.63
2018-05-25T10:46:21.851Z,765.00
2018-05-25T10:47:21.861Z,928.13
2018-05-25T10:48:21.878Z,4865.63
2018-05-25T10:49:21.892Z,5225.63
2018-05-25T10:50:21.908Z,5141.25
2018-05-25T10:51:21.927Z,3780.00
2018-05-25T10:52:21.942Z,888.75
2018-05-25T10:53:21.956Z,883.13
2018-05-25T10:54:21.971Z,1231.88
2018-05-25T10:55:22.018Z,5000.63
2018-05-25T10:56:21.995Z,4809.38
2018-05-25T10:57:22.018Z,5360.63
2018-05-25T10:58:22.028Z,3864.38
2018-05-25T10:59:22.037Z,1220.63
2018-05-25T11:00:22.051Z,2739.38
2018-05-25T11:01:22.066Z,5349.38
2018-05-25T11:02:22.079Z,5585.63
2018-05-25T11:03:22.097Z,5653.13
2018-05-25T11:04:22.112Z,5625.00
2018-05-25T11:05:22.125Z,669.38
2018-05-25T11:06:22.140Z,618.75
2018-05-25T11:07:22.148Z,652.50
2018-05-25T11:08:22.162Z,720.00
2018-05-25T11:09:22.177Z,877.50
2018-05-25T11:10:22.190Z,1890.00
2018-05-25T11:11:22.206Z,1057.50
2018-05-25T11:12:22.221Z,1231.88
2018-05-25T11:13:22.227Z,1186.88
2018-05-25T11:14:22.242Z,1074.38
2018-05-25T11:15:22.256Z,1023.75
2018-05-25T11:16:22.268Z,1051.88
2018-05-25T11:17:22.281Z,1051.88
2018-05-25T11:18:22.293Z,961.88
2018-05-25T11:19:22.298Z,770.63
2018-05-25T11:20:22.309Z,703.13
2018-05-25T11:21:22.322Z,675.00
2018-05-25T11:22:22.333Z,703.13
2018-05-25T11:23:22.350Z,703.13
2018-05-25T11:24:22.357Z,680.63
2018-05-25T11:25:22.367Z,663.75
2018-05-25T11:26:22.375Z,691.88
2018-05-25T11:27:22.385Z,742.50
2018-05-25T11:28:22.394Z,776.25
2018-05-25T11:29:22.404Z,810.00
2018-05-25T11:30:22.414Z,871.88
2018-05-25T11:31:22.417Z,945.00
2018-05-25T11:32:22.427Z,939.38
2018-05-25T11:33:22.435Z,894.38
2018-05-25T11:34:22.445Z,950.63
2018-05-25T11:35:22.456Z,894.38
2018-05-25T11:36:22.466Z,798.75
2018-05-25T11:37:22.473Z,736.88
2018-05-25T11:38:22.481Z,579.38
2018-05-25T11:39:22.485Z,556.88
2018-05-25T11:40:22.494Z,528.75
2018-05-25T11:41:22.502Z,500.63
2018-05-25T11:42:22.510Z,500.63
2018-05-25T11:43:22.523Z,534.38
2018-05-25T11:44:22.530Z,596.25
2018-05-25T11:45:22.533Z,630.00
2018-05-25T11:46:22.541Z,652.50
2018-05-25T11:47:22.556Z,646.88
2018-05-25T11:48:22.560Z,641.25
2018-05-25T11:49:22.570Z,624.38
2018-05-25T11:50:22.577Z,613.13
2018-05-25T11:51:22.577Z,596.25
2018-05-25T11:52:22.585Z,596.25
2018-05-25T11:53:22.591Z,635.63
2018-05-25T11:54:22.599Z,618.75
2018-05-25T11:55:22.610Z,585.00
2018-05-25T11:56:22.617Z,573.75
2018-05-25T11:57:22.625Z,618.75
2018-05-25T11:58:22.632Z,652.50
2018-05-25T11:59:22.632Z,663.75
2018-05-25T12:00:22.639Z,686.25
2018-05-25T12:01:22.651Z,680.63
2018-05-25T12:02:22.658Z,703.13
2018-05-25T12:03:22.659Z,714.38
2018-05-25T12:04:22.665Z,714.38
2018-05-25T12:05:22.671Z,714.38
2018-05-25T12:06:22.678Z,720.00
2018-05-25T12:07:22.688Z,736.88
2018-05-25T12:08:22.694Z,748.13
2018-05-25T12:09:22.701Z,765.00
2018-05-25T12:10:22.707Z,770.63
2018-05-25T12:11:22.708Z,787.50
2018-05-25T12:12:22.715Z,798.75
2018-05-25T12:13:22.722Z,787.50
2018-05-25T12:14:22.735Z,781.88
2018-05-25T12:15:22.738Z,798.75
2018-05-25T12:16:22.760Z,826.88
2018-05-25T12:17:22.746Z,787.50
2018-05-25T12:18:22.753Z,731.25
2018-05-25T12:19:22.763Z,663.75
2018-05-25T12:20:22.809Z,646.88
2018-05-25T12:21:22.775Z,663.75
2018-05-25T12:22:22.782Z,680.63
2018-05-25T12:23:22.785Z,708.75
2018-05-25T12:24:22.793Z,736.88
2018-05-25T12:25:22.798Z,776.25
2018-05-25T12:26:22.804Z,815.63
2018-05-25T12:27:22.814Z,810.00
2018-05-25T12:28:22.821Z,781.88
2018-05-25T12:29:22.829Z,776.25
2018-05-25T12:30:22.839Z,781.88
2018-05-25T12:31:22.837Z,832.50
2018-05-25T12:32:22.843Z,838.13
2018-05-25T12:33:22.856Z,826.88